Corinth, North Dakota
Current Conditions -  °F | °C
As of 6:15 AM on Sunday 23 Nov 2014 (Local Time) from KD50 Reporting Station
Overcast Overcast  
Wind Chill:   Ceiling: 1100
Heat Index: 23°   Visibility: 8mi
Dew Point: 21°   Wind: 29mph
Humidity: 93%   Direction: 300°WNW
Pressure: 29.41"   Gusts: 40mph
Location:  48.59°N, 103.406°W
Report Text: KD50 231215Z AUTO 30025G35KT 8SM OVC011 M05/M06 A2941 RMK AO2
Loading
Personal Weather Stations






























Interactive Weather Map New forecast layout! Learn more

10-Day Weather Forecast

Advertisements
Track Severe Weather on mobile